createdAt,value
2022-10-02T00:01:56.576Z,9.37
2022-10-02T00:06:51.017Z,13.93
2022-10-02T00:11:46.851Z,31.07
2022-10-02T00:16:43.318Z,62.20
2022-10-02T00:21:48.534Z,23.33
2022-10-02T00:26:42.766Z,14.17
2022-10-02T00:31:53.772Z,10.80
2022-10-02T00:37:05.944Z,9.93
2022-10-02T00:42:24.194Z,13.27
2022-10-02T00:47:50.325Z,8.27
2022-10-02T00:52:55.711Z,9.10
2022-10-02T00:58:33.298Z,7.90
2022-10-02T01:03:34.624Z,4.40
2022-10-02T01:08:28.074Z,6.10
2022-10-02T01:13:20.865Z,6.10
2022-10-02T01:18:14.442Z,5.47
2022-10-02T01:23:33.105Z,6.83
2022-10-02T01:28:25.846Z,4.73
2022-10-02T01:33:18.792Z,10.53
2022-10-02T01:38:15.395Z,5.70
2022-10-02T01:43:14.885Z,4.67
2022-10-02T01:48:43.765Z,5.83
2022-10-02T01:53:50.736Z,3.73
2022-10-02T01:58:47.831Z,7.00
2022-10-02T02:04:04.460Z,4.17
2022-10-02T02:09:01.822Z,3.77
2022-10-02T02:14:17.027Z,8.40
2022-10-02T02:19:15.036Z,4.57
2022-10-02T02:24:18.690Z,7.50
2022-10-02T02:29:13.033Z,13.33
2022-10-02T02:34:11.741Z,12.70
2022-10-02T02:39:10.615Z,8.80
2022-10-02T02:44:16.692Z,6.47
2022-10-02T02:49:13.192Z,7.20
2022-10-02T02:54:16.017Z,7.07
2022-10-02T02:59:10.259Z,5.50
2022-10-02T03:04:02.944Z,5.03
2022-10-02T03:08:55.480Z,6.70
2022-10-02T03:14:18.656Z,8.17
2022-10-02T03:19:32.158Z,8.40
2022-10-02T03:24:30.217Z,5.70
2022-10-02T03:29:35.341Z,6.20
2022-10-02T03:34:28.312Z,12.07
2022-10-02T03:39:25.229Z,11.27
2022-10-02T03:44:18.308Z,5.90
2022-10-02T03:49:10.464Z,11.60
2022-10-02T03:54:03.931Z,7.77
2022-10-02T03:58:59.980Z,6.23
2022-10-02T04:04:04.645Z,6.50
2022-10-02T04:09:12.508Z,4.83
2022-10-02T04:14:28.209Z,7.50
2022-10-02T04:19:33.886Z,5.23
2022-10-02T04:24:45.010Z,4.70
2022-10-02T04:30:11.767Z,3.40
2022-10-02T04:35:18.067Z,5.90
2022-10-02T04:40:13.100Z,4.57
2022-10-02T04:45:17.745Z,4.53
2022-10-02T04:50:29.030Z,6.50
2022-10-02T04:55:38.495Z,4.67
2022-10-02T05:00:45.740Z,4.93
2022-10-02T05:05:43.731Z,4.77
2022-10-02T05:11:05.136Z,7.60
2022-10-02T05:16:12.568Z,9.10
2022-10-02T05:21:19.611Z,3.33
2022-10-02T05:26:25.742Z,5.67
2022-10-02T05:31:30.733Z,4.50
2022-10-02T05:36:36.219Z,6.33
2022-10-02T05:41:34.884Z,5.13
2022-10-02T05:46:32.946Z,6.73
2022-10-02T05:51:52.009Z,7.37
2022-10-02T05:56:52.175Z,5.90
2022-10-02T06:01:50.058Z,4.77
2022-10-02T06:06:57.008Z,8.80
2022-10-02T06:12:00.088Z,7.17
2022-10-02T06:17:03.203Z,6.37
2022-10-02T06:22:14.148Z,7.23
2022-10-02T06:27:26.177Z,5.90
2022-10-02T06:32:55.871Z,6.53
2022-10-02T06:37:56.832Z,5.93
2022-10-02T06:43:18.295Z,7.70
2022-10-02T06:48:41.162Z,8.63
2022-10-02T06:53:49.530Z,4.40
2022-10-02T06:59:30.489Z,3.73
2022-10-02T07:04:32.533Z,3.17
2022-10-02T07:09:44.144Z,4.07
2022-10-02T07:14:55.770Z,5.07
2022-10-02T07:19:53.480Z,4.50
2022-10-02T07:25:10.458Z,5.97
2022-10-02T07:30:12.715Z,4.30
2022-10-02T07:35:35.608Z,2.53
2022-10-02T07:40:59.911Z,3.07
2022-10-02T07:46:01.965Z,4.60
2022-10-02T07:50:57.657Z,3.90
2022-10-02T07:55:53.986Z,6.17
2022-10-02T08:00:50.975Z,5.83
2022-10-02T08:05:48.743Z,4.33
2022-10-02T08:10:47.526Z,6.23
2022-10-02T08:15:42.785Z,5.27
2022-10-02T08:20:39.789Z,7.73
2022-10-02T08:25:39.862Z,5.57
2022-10-02T08:30:32.491Z,8.53
2022-10-02T08:35:42.435Z,6.60
2022-10-02T08:40:50.219Z,8.67
2022-10-02T08:46:47.002Z,8.17
2022-10-02T08:52:17.180Z,7.17
2022-10-02T08:57:39.715Z,7.20
2022-10-02T09:02:36.558Z,3.53
2022-10-02T09:07:31.904Z,7.90
2022-10-02T09:12:46.224Z,5.60
2022-10-02T09:18:10.270Z,5.57
2022-10-02T09:23:21.718Z,5.27
2022-10-02T09:28:38.882Z,8.03
2022-10-02T09:34:10.318Z,3.30
2022-10-02T09:39:14.859Z,5.60
2022-10-02T09:44:44.213Z,6.30
2022-10-02T09:50:18.158Z,7.70
2022-10-02T09:55:21.509Z,3.00
2022-10-02T10:00:20.125Z,3.93
2022-10-02T10:05:24.658Z,3.90
2022-10-02T10:10:39.104Z,2.87
2022-10-02T10:15:46.984Z,3.83
2022-10-02T10:21:04.164Z,3.75
2022-10-02T10:26:51.463Z,3.10
2022-10-02T10:32:02.789Z,3.97
2022-10-02T10:37:27.048Z,2.42
2022-10-02T10:43:03.068Z,4.07
2022-10-02T10:48:19.878Z,5.23
2022-10-02T10:53:35.795Z,2.97
2022-10-02T10:58:34.259Z,5.30
2022-10-02T11:03:47.342Z,4.80
2022-10-02T11:09:26.847Z,4.33
2022-10-02T11:14:41.063Z,5.07
2022-10-02T11:19:41.412Z,5.37
2022-10-02T11:25:13.254Z,3.00
2022-10-02T11:30:24.215Z,3.37
2022-10-02T11:35:40.094Z,5.60
2022-10-02T11:41:02.521Z,4.63
2022-10-02T11:46:12.291Z,2.70
2022-10-02T11:51:31.468Z,4.57
2022-10-02T11:56:36.554Z,3.87
2022-10-02T12:01:53.856Z,3.57
2022-10-02T12:06:59.531Z,4.03
2022-10-02T12:12:17.232Z,5.87
2022-10-02T12:17:36.425Z,5.27
2022-10-02T12:23:04.131Z,9.37
2022-10-02T12:28:15.669Z,4.67
2022-10-02T12:33:27.651Z,3.47
2022-10-02T12:38:23.244Z,5.63
2022-10-02T12:43:57.632Z,6.17
2022-10-02T12:49:25.550Z,1.83
2022-10-02T12:54:50.957Z,3.60
2022-10-02T12:59:59.329Z,4.67
2022-10-02T13:05:13.385Z,7.13
2022-10-02T13:10:29.705Z,5.23
2022-10-02T13:16:04.724Z,5.77
2022-10-02T13:21:10.730Z,4.07
2022-10-02T13:26:14.034Z,5.90
2022-10-02T13:31:36.890Z,6.40
2022-10-02T13:37:12.546Z,4.13
2022-10-02T13:42:44.595Z,2.23
2022-10-02T13:47:49.544Z,3.00
2022-10-02T13:52:45.766Z,3.07
2022-10-02T13:57:53.126Z,5.33
2022-10-02T14:03:38.105Z,7.63
2022-10-02T14:08:54.368Z,6.53
2022-10-02T14:14:11.374Z,4.83
2022-10-02T14:19:41.145Z,3.67
2022-10-02T14:24:55.016Z,3.30
2022-10-02T14:30:12.047Z,7.07
2022-10-02T14:35:11.879Z,5.50
2022-10-02T14:40:30.361Z,3.17
2022-10-02T14:45:57.567Z,4.17
2022-10-02T14:51:37.490Z,4.50
2022-10-02T14:56:33.335Z,3.93
2022-10-02T15:01:32.287Z,8.30
2022-10-02T15:06:53.800Z,6.97
2022-10-02T15:12:21.327Z,2.47
2022-10-02T15:18:00.551Z,3.37
2022-10-02T15:23:03.567Z,7.17
2022-10-02T15:28:35.277Z,4.33
2022-10-02T15:33:57.836Z,7.90
2022-10-02T15:39:16.115Z,4.33
2022-10-02T15:44:28.653Z,4.03
2022-10-02T15:49:40.967Z,5.57
2022-10-02T15:54:51.867Z,4.30
2022-10-02T16:00:02.199Z,5.47
2022-10-02T16:05:32.043Z,5.40
2022-10-02T16:10:36.514Z,5.47
2022-10-02T16:15:54.709Z,5.63
2022-10-02T16:20:56.357Z,5.00
2022-10-02T16:26:17.410Z,4.90
2022-10-02T16:31:31.037Z,8.57
2022-10-02T16:36:34.834Z,6.27
2022-10-02T16:42:23.806Z,7.40
2022-10-02T16:47:42.349Z,4.77
2022-10-02T16:52:53.734Z,6.03
2022-10-02T16:58:15.629Z,8.07
2022-10-02T17:03:41.462Z,6.87
2022-10-02T17:09:02.535Z,9.97
2022-10-02T17:13:55.359Z,4.90
2022-10-02T17:19:17.593Z,8.10
2022-10-02T17:24:32.236Z,8.63
2022-10-02T17:29:56.676Z,7.13
2022-10-02T17:35:29.181Z,4.43
2022-10-02T17:40:53.802Z,6.27
2022-10-02T17:45:58.948Z,6.43
2022-10-02T17:51:47.158Z,6.40
2022-10-02T17:56:52.348Z,9.20
2022-10-02T18:01:53.539Z,9.57
2022-10-02T18:07:12.617Z,8.90
2022-10-02T18:12:29.549Z,9.37
2022-10-02T18:17:46.588Z,9.27
2022-10-02T18:23:35.009Z,10.90
2022-10-02T18:28:49.058Z,9.13
2022-10-02T18:34:30.418Z,8.80
2022-10-02T18:40:01.345Z,7.87
2022-10-02T18:45:14.124Z,8.47
2022-10-02T18:50:28.773Z,8.20
2022-10-02T18:55:44.908Z,9.40
2022-10-02T19:01:06.169Z,7.83
2022-10-02T19:06:09.276Z,23.37
2022-10-02T19:11:29.742Z,29.13
2022-10-02T19:16:39.006Z,33.83
2022-10-02T19:21:45.095Z,14.57
2022-10-02T19:26:52.214Z,8.50
2022-10-02T19:31:49.150Z,8.23
2022-10-02T19:36:54.726Z,12.30
2022-10-02T19:41:50.501Z,8.27
2022-10-02T19:47:06.895Z,7.67
2022-10-02T19:52:04.742Z,5.97
2022-10-02T19:57:09.345Z,6.67
2022-10-02T20:02:21.649Z,6.40
2022-10-02T20:07:23.496Z,15.00
2022-10-02T20:12:32.137Z,12.93
2022-10-02T20:17:25.238Z,9.43
2022-10-02T20:22:50.290Z,8.97
2022-10-02T20:27:45.834Z,9.23
2022-10-02T20:32:47.209Z,10.93
2022-10-02T20:37:43.509Z,7.20
2022-10-02T20:43:00.450Z,6.93
2022-10-02T20:48:25.591Z,6.30
2022-10-02T20:53:46.597Z,3.70
2022-10-02T20:58:53.720Z,7.57
2022-10-02T21:04:21.399Z,4.50
2022-10-02T21:09:50.553Z,10.10
2022-10-02T21:14:57.587Z,6.73
2022-10-02T21:20:27.814Z,5.20
2022-10-02T21:25:59.897Z,4.17
2022-10-02T21:31:10.829Z,5.37
2022-10-02T21:36:09.852Z,9.50
2022-10-02T21:41:37.900Z,4.70
2022-10-02T21:46:54.938Z,5.90
2022-10-02T21:51:59.374Z,4.90
2022-10-02T21:57:25.811Z,6.83
2022-10-02T22:03:11.675Z,4.37
2022-10-02T22:08:18.303Z,5.37
2022-10-02T22:13:27.886Z,5.13
2022-10-02T22:18:33.830Z,4.80
2022-10-02T22:23:57.601Z,6.37
2022-10-02T22:29:00.325Z,7.10
2022-10-02T22:34:36.803Z,6.77
2022-10-02T22:39:33.810Z,4.87
2022-10-02T22:44:39.181Z,5.30
2022-10-02T22:49:55.672Z,7.70
2022-10-02T22:55:00.717Z,6.77
2022-10-02T23:00:00.111Z,6.93
2022-10-02T23:05:01.639Z,8.23
2022-10-02T23:10:00.635Z,4.53
2022-10-02T23:15:03.786Z,5.37
2022-10-02T23:20:18.099Z,7.27
2022-10-02T23:25:30.792Z,7.83
2022-10-02T23:30:23.834Z,9.60
2022-10-02T23:35:36.348Z,6.80
2022-10-02T23:40:55.132Z,7.87
2022-10-02T23:45:55.056Z,5.60
2022-10-02T23:51:13.435Z,8.40
2022-10-02T23:56:32.173Z,7.53
